createdAt,value
2022-11-19T00:01:31.663Z,70.76
2022-11-19T00:03:58.274Z,70.82
2022-11-19T00:06:26.132Z,71.80
2022-11-19T00:08:52.851Z,71.99
2022-11-19T00:11:41.059Z,70.87
2022-11-19T00:14:08.162Z,70.21
2022-11-19T00:16:35.462Z,70.36
2022-11-19T00:19:02.023Z,70.98
2022-11-19T00:21:28.518Z,69.65
2022-11-19T00:23:55.083Z,69.38
2022-11-19T00:26:21.840Z,69.51
2022-11-19T00:28:48.716Z,69.72
2022-11-19T00:31:15.700Z,69.42
2022-11-19T00:33:42.948Z,69.59
2022-11-19T00:36:10.910Z,70.34
2022-11-19T00:38:37.591Z,70.78
2022-11-19T00:41:04.118Z,70.66
2022-11-19T00:43:48.483Z,70.15
2022-11-19T00:46:15.269Z,70.68
2022-11-19T00:48:41.830Z,70.91
2022-11-19T00:51:08.560Z,70.85
2022-11-19T00:53:37.763Z,71.32
2022-11-19T00:56:05.423Z,71.17
2022-11-19T00:58:32.026Z,71.76
2022-11-19T01:01:00.840Z,71.69
2022-11-19T01:03:29.935Z,72.30
2022-11-19T01:05:56.445Z,72.54
2022-11-19T01:08:22.986Z,72.72
2022-11-19T01:10:49.627Z,73.00
2022-11-19T01:13:34.864Z,73.55
2022-11-19T01:16:05.698Z,73.32
2022-11-19T01:18:32.346Z,73.44
2022-11-19T01:20:59.424Z,73.64
2022-11-19T01:23:26.023Z,74.11
2022-11-19T01:25:52.611Z,73.94
2022-11-19T01:28:19.293Z,74.09
2022-11-19T01:30:50.894Z,73.41
2022-11-19T01:33:19.938Z,74.30
2022-11-19T01:36:00.064Z,72.84
2022-11-19T01:38:27.023Z,72.65
2022-11-19T01:40:56.308Z,72.81
2022-11-19T01:43:39.392Z,72.77
2022-11-19T01:46:06.168Z,73.02
2022-11-19T01:48:35.568Z,72.88
2022-11-19T01:51:15.507Z,72.58
2022-11-19T01:53:42.781Z,72.28
2022-11-19T01:56:11.771Z,71.06
2022-11-19T01:58:39.375Z,70.62
2022-11-19T02:01:06.507Z,70.86
2022-11-19T02:03:33.120Z,71.10
2022-11-19T02:06:00.507Z,70.09
2022-11-19T02:08:37.963Z,70.55
2022-11-19T02:11:27.113Z,70.62
2022-11-19T02:14:02.793Z,71.14
2022-11-19T02:16:29.331Z,70.37
2022-11-19T02:19:01.572Z,70.41
2022-11-19T02:21:31.192Z,70.67
2022-11-19T02:24:19.181Z,71.11
2022-11-19T02:26:48.953Z,70.78
2022-11-19T02:29:38.934Z,70.44
2022-11-19T02:32:08.508Z,69.65
2022-11-19T02:34:38.619Z,69.10
2022-11-19T02:37:06.137Z,69.25
2022-11-19T02:39:32.863Z,68.64
2022-11-19T02:42:07.798Z,69.08
2022-11-19T02:44:53.118Z,69.14
2022-11-19T02:47:20.766Z,69.31
2022-11-19T02:49:53.390Z,69.83
2022-11-19T02:52:20.357Z,68.20
2022-11-19T02:54:49.062Z,68.46
2022-11-19T02:57:20.225Z,67.22
2022-11-19T03:00:19.836Z,66.88
2022-11-19T03:03:06.109Z,67.55
2022-11-19T03:05:35.625Z,67.31
2022-11-19T03:08:02.252Z,68.11
2022-11-19T03:10:31.405Z,67.89
2022-11-19T03:13:28.978Z,67.46
2022-11-19T03:16:14.588Z,66.40
2022-11-19T03:18:51.066Z,65.39
2022-11-19T03:21:36.742Z,65.84
2022-11-19T03:24:23.949Z,66.26
2022-11-19T03:27:25.169Z,64.66
2022-11-19T03:29:52.170Z,64.58
2022-11-19T03:32:22.114Z,65.39
2022-11-19T03:34:49.085Z,65.44
2022-11-19T03:37:15.867Z,63.62
2022-11-19T03:39:42.458Z,62.63
2022-11-19T03:42:12.498Z,63.57
2022-11-19T03:44:39.022Z,64.63
2022-11-19T03:47:07.646Z,65.03
2022-11-19T03:49:35.046Z,64.84
2022-11-19T03:52:01.710Z,65.38
2022-11-19T03:54:28.293Z,66.04
2022-11-19T03:56:54.866Z,67.03
2022-11-19T03:59:28.289Z,67.06
2022-11-19T04:01:56.871Z,67.63
2022-11-19T04:04:38.837Z,67.92
2022-11-19T04:07:12.918Z,68.48
2022-11-19T04:09:41.997Z,67.58
2022-11-19T04:12:09.953Z,67.67
2022-11-19T04:14:39.352Z,67.61
2022-11-19T04:17:06.059Z,68.41
2022-11-19T04:19:32.879Z,68.30
2022-11-19T04:21:59.583Z,69.35
2022-11-19T04:24:28.583Z,69.52
2022-11-19T04:26:55.077Z,69.40
2022-11-19T04:29:22.322Z,69.31
2022-11-19T04:31:49.116Z,68.68
2022-11-19T04:34:17.978Z,68.86
2022-11-19T04:36:44.499Z,68.04
2022-11-19T04:39:12.560Z,68.51
2022-11-19T04:41:39.741Z,68.53
2022-11-19T04:44:06.428Z,68.64
2022-11-19T04:46:36.403Z,68.92
2022-11-19T04:49:03.698Z,68.88
2022-11-19T04:51:32.755Z,69.05
2022-11-19T04:54:01.712Z,68.57
2022-11-19T04:56:28.331Z,69.02
2022-11-19T04:58:57.258Z,68.86
2022-11-19T05:01:27.227Z,67.57
2022-11-19T05:03:54.034Z,67.76
2022-11-19T05:06:20.576Z,67.50
2022-11-19T05:08:52.214Z,67.79
2022-11-19T05:11:21.210Z,67.13
2022-11-19T05:13:49.859Z,67.62
2022-11-19T05:16:30.350Z,67.16
2022-11-19T05:19:01.910Z,67.14
2022-11-19T05:21:31.638Z,66.35
2022-11-19T05:24:00.542Z,66.03
2022-11-19T05:26:27.261Z,65.22
2022-11-19T05:28:53.865Z,63.89
2022-11-19T05:31:20.501Z,63.70
2022-11-19T05:33:49.335Z,64.62
2022-11-19T05:36:20.840Z,64.44
2022-11-19T05:38:59.073Z,63.88
2022-11-19T05:41:52.006Z,64.17
2022-11-19T05:44:20.885Z,64.74
2022-11-19T05:46:48.090Z,64.72
2022-11-19T05:49:15.740Z,62.94
2022-11-19T05:51:42.278Z,63.66
2022-11-19T05:54:08.913Z,63.67
2022-11-19T05:56:35.549Z,64.70
2022-11-19T05:59:04.586Z,65.41
2022-11-19T06:01:33.493Z,64.92
2022-11-19T06:04:02.905Z,65.01
2022-11-19T06:06:35.037Z,65.12
2022-11-19T06:09:03.988Z,65.50
2022-11-19T06:11:49.791Z,66.09
2022-11-19T06:14:28.466Z,65.86
2022-11-19T06:16:56.569Z,66.34
2022-11-19T06:19:23.335Z,64.53
2022-11-19T06:21:53.213Z,64.98
2022-11-19T06:24:19.933Z,64.00
2022-11-19T06:26:48.915Z,64.06
2022-11-19T06:29:15.973Z,64.57
2022-11-19T06:31:44.565Z,63.56
2022-11-19T06:34:13.670Z,63.01
2022-11-19T06:36:44.957Z,64.37
2022-11-19T06:39:12.876Z,64.59
2022-11-19T06:41:39.406Z,63.61
2022-11-19T06:44:06.241Z,63.91
2022-11-19T06:46:32.847Z,63.40
2022-11-19T06:49:04.106Z,63.74
2022-11-19T06:51:30.745Z,62.87
2022-11-19T06:53:59.590Z,63.34
2022-11-19T06:56:28.532Z,63.14
2022-11-19T06:58:58.464Z,63.01
2022-11-19T07:01:25.082Z,62.48
2022-11-19T07:03:51.666Z,62.47
2022-11-19T07:06:18.286Z,62.79
2022-11-19T07:08:44.892Z,62.30
2022-11-19T07:11:26.077Z,62.58
2022-11-19T07:13:58.973Z,62.21
2022-11-19T07:16:28.950Z,61.18
2022-11-19T07:18:56.898Z,62.33
2022-11-19T07:21:23.454Z,62.65
2022-11-19T07:23:49.968Z,62.19
2022-11-19T07:26:19.137Z,62.12
2022-11-19T07:28:45.672Z,61.22
2022-11-19T07:31:12.322Z,61.58
2022-11-19T07:33:41.421Z,61.74
2022-11-19T07:36:16.819Z,61.06
2022-11-19T07:38:44.609Z,61.17
2022-11-19T07:41:30.098Z,60.46
2022-11-19T07:43:56.757Z,60.21
2022-11-19T07:46:23.401Z,60.71
2022-11-19T07:48:56.381Z,60.08
2022-11-19T07:51:25.813Z,59.38
2022-11-19T07:53:52.496Z,59.38
2022-11-19T07:56:19.186Z,59.20
2022-11-19T07:58:48.385Z,59.25
2022-11-19T08:01:24.181Z,58.64
2022-11-19T08:03:55.925Z,58.65
2022-11-19T08:06:27.631Z,58.28
2022-11-19T08:08:56.508Z,56.81
2022-11-19T08:11:23.058Z,58.01
2022-11-19T08:13:49.989Z,57.56
2022-11-19T08:16:36.669Z,57.52
2022-11-19T08:19:23.206Z,56.53
2022-11-19T08:21:50.223Z,57.48
2022-11-19T08:24:18.423Z,57.62
2022-11-19T08:26:45.298Z,58.24
2022-11-19T08:29:16.658Z,58.77
2022-11-19T08:31:48.571Z,58.37
2022-11-19T08:34:15.566Z,57.29
2022-11-19T08:36:44.748Z,57.01
2022-11-19T08:39:11.628Z,56.58
2022-11-19T08:41:56.937Z,57.29
2022-11-19T08:44:23.726Z,55.89
2022-11-19T08:46:52.657Z,54.99
2022-11-19T08:49:19.316Z,54.74
2022-11-19T08:51:48.183Z,56.04
2022-11-19T08:54:14.774Z,55.42
2022-11-19T08:56:41.445Z,55.32
2022-11-19T08:59:08.012Z,55.42
2022-11-19T09:01:34.679Z,55.99
2022-11-19T09:04:03.768Z,54.12
2022-11-19T09:06:30.318Z,55.91
2022-11-19T09:08:59.405Z,54.24
2022-11-19T09:11:25.998Z,55.51
2022-11-19T09:13:52.806Z,53.87
2022-11-19T09:16:19.388Z,54.96
2022-11-19T09:18:46.020Z,56.92
2022-11-19T09:21:12.726Z,54.88
2022-11-19T09:23:42.578Z,56.03
2022-11-19T09:26:10.872Z,55.08
2022-11-19T09:28:37.464Z,54.10
2022-11-19T09:31:08.207Z,53.21
2022-11-19T09:33:35.563Z,48.59
2022-11-19T09:36:02.211Z,52.08
2022-11-19T09:38:31.889Z,51.36
2022-11-19T09:40:58.474Z,50.85
2022-11-19T09:43:43.513Z,50.77
2022-11-19T09:46:20.559Z,50.38
2022-11-19T09:48:47.186Z,49.87
2022-11-19T09:51:26.367Z,50.51
2022-11-19T09:53:52.874Z,50.21
2022-11-19T09:56:38.411Z,48.72
2022-11-19T09:59:08.272Z,49.55
2022-11-19T10:01:37.412Z,50.03
2022-11-19T10:04:06.416Z,49.78
2022-11-19T10:06:58.085Z,49.78
2022-11-19T10:09:24.689Z,48.00
2022-11-19T10:11:54.063Z,50.46
2022-11-19T10:14:25.999Z,47.97
2022-11-19T10:16:57.181Z,46.56
2022-11-19T10:19:39.322Z,48.15
2022-11-19T10:22:15.116Z,47.87
2022-11-19T10:24:45.339Z,46.47
2022-11-19T10:27:29.892Z,48.19
2022-11-19T10:30:05.806Z,48.74
2022-11-19T10:32:43.282Z,47.91
2022-11-19T10:35:19.403Z,46.88
2022-11-19T10:37:54.221Z,45.14
2022-11-19T10:40:26.623Z,45.41
2022-11-19T10:42:58.145Z,45.13
2022-11-19T10:45:28.862Z,42.04
2022-11-19T10:48:12.027Z,44.03
2022-11-19T10:50:38.651Z,43.12
2022-11-19T10:53:24.050Z,44.54
2022-11-19T10:55:54.780Z,44.85
2022-11-19T10:58:23.186Z,45.88
2022-11-19T11:00:49.734Z,46.30
2022-11-19T11:03:22.322Z,46.03
2022-11-19T11:06:02.126Z,44.22
2022-11-19T11:08:29.165Z,44.76
2022-11-19T11:10:55.800Z,41.91
2022-11-19T11:13:48.334Z,46.09
2022-11-19T11:16:18.672Z,43.99
2022-11-19T11:18:47.799Z,46.52
2022-11-19T11:21:34.771Z,43.69
2022-11-19T11:24:04.991Z,43.70
2022-11-19T11:26:33.778Z,46.75
2022-11-19T11:29:04.504Z,45.75
2022-11-19T11:31:35.546Z,44.61
2022-11-19T11:34:05.265Z,45.45
2022-11-19T11:36:32.920Z,47.12
2022-11-19T11:39:02.471Z,47.42
2022-11-19T11:44:23.342Z,46.27
2022-11-19T11:46:54.057Z,43.75
2022-11-19T11:49:20.915Z,45.39
2022-11-19T11:51:50.186Z,45.15
2022-11-19T11:54:18.542Z,43.73
2022-11-19T11:56:45.415Z,44.66
2022-11-19T11:59:21.520Z,44.69
2022-11-19T12:02:10.328Z,45.06
2022-11-19T12:04:39.409Z,42.78
2022-11-19T12:07:10.188Z,43.77
2022-11-19T12:10:03.740Z,44.20
2022-11-19T12:12:39.536Z,44.52
2022-11-19T12:15:09.142Z,43.71
2022-11-19T12:17:48.411Z,42.13
2022-11-19T12:20:31.207Z,43.85
2022-11-19T12:23:01.900Z,46.09
2022-11-19T12:25:54.918Z,45.29
2022-11-19T12:28:34.308Z,44.80
2022-11-19T12:31:03.914Z,47.08
2022-11-19T12:33:41.696Z,44.79
2022-11-19T12:36:28.636Z,46.42
2022-11-19T12:38:58.887Z,46.28
2022-11-19T12:41:39.180Z,46.75
2022-11-19T12:44:12.737Z,45.33
2022-11-19T12:46:58.124Z,45.60
2022-11-19T12:49:51.166Z,44.66
2022-11-19T12:52:25.347Z,44.86
2022-11-19T12:54:52.457Z,44.12
2022-11-19T12:57:30.889Z,43.50
2022-11-19T13:00:11.160Z,42.57
2022-11-19T13:02:40.802Z,41.14
2022-11-19T13:05:16.302Z,42.91
2022-11-19T13:07:51.961Z,40.61
2022-11-19T13:10:19.337Z,41.68
2022-11-19T13:12:49.993Z,41.61
2022-11-19T13:15:21.014Z,41.39
2022-11-19T13:17:52.082Z,41.57
2022-11-19T13:20:23.532Z,41.21
2022-11-19T13:22:50.155Z,41.65
2022-11-19T13:25:19.213Z,42.87
2022-11-19T13:27:48.915Z,41.68
2022-11-19T13:30:22.516Z,42.14
2022-11-19T13:32:52.110Z,43.98
2022-11-19T13:35:20.153Z,43.86
2022-11-19T13:38:12.509Z,44.13
2022-11-19T13:40:48.110Z,44.28
2022-11-19T13:43:33.893Z,44.69
2022-11-19T13:46:06.673Z,43.76
2022-11-19T13:48:43.879Z,44.89
2022-11-19T13:51:39.800Z,44.54
2022-11-19T13:54:07.486Z,45.42
2022-11-19T13:56:49.262Z,45.48
2022-11-19T13:59:24.855Z,46.01
2022-11-19T14:02:17.307Z,45.62
2022-11-19T14:05:02.830Z,46.27
2022-11-19T14:07:33.854Z,46.56
2022-11-19T14:10:18.077Z,46.42
2022-11-19T14:12:47.256Z,46.20
2022-11-19T14:15:44.539Z,47.01
2022-11-19T14:18:32.999Z,47.01
2022-11-19T14:21:37.798Z,46.49
2022-11-19T14:24:44.998Z,47.40
2022-11-19T14:27:32.251Z,47.89
2022-11-19T14:30:11.601Z,47.70
2022-11-19T14:32:46.604Z,48.41
2022-11-19T14:35:13.847Z,49.04
2022-11-19T14:37:42.116Z,48.12
2022-11-19T14:40:16.058Z,49.22
2022-11-19T14:43:19.036Z,49.68
2022-11-19T14:46:00.774Z,49.98
2022-11-19T14:48:30.657Z,50.01
2022-11-19T14:51:04.099Z,50.82
2022-11-19T14:53:33.032Z,51.93
2022-11-19T14:56:02.126Z,52.38
2022-11-19T14:58:28.621Z,52.80
2022-11-19T15:01:08.164Z,53.28
2022-11-19T15:03:34.896Z,53.43
2022-11-19T15:06:02.595Z,53.69
2022-11-19T15:08:30.418Z,53.87
2022-11-19T15:11:07.492Z,54.21
2022-11-19T15:13:39.172Z,54.29
2022-11-19T15:16:16.284Z,54.76
2022-11-19T15:18:42.755Z,55.09
2022-11-19T15:21:21.424Z,55.19
2022-11-19T15:24:00.524Z,55.40
2022-11-19T15:26:27.042Z,55.54
2022-11-19T15:28:56.619Z,55.82
2022-11-19T15:31:36.091Z,56.13
2022-11-19T15:34:02.798Z,56.52
2022-11-19T15:36:33.622Z,56.47
2022-11-19T15:39:04.632Z,57.03
2022-11-19T15:41:35.871Z,56.85
2022-11-19T15:44:03.354Z,57.04
2022-11-19T15:46:39.567Z,57.16
2022-11-19T15:49:25.544Z,57.28
2022-11-19T15:51:55.115Z,57.50
2022-11-19T15:54:28.185Z,57.70
2022-11-19T15:56:54.751Z,57.87
2022-11-19T15:59:21.545Z,58.03
2022-11-19T16:02:03.660Z,58.26
2022-11-19T16:04:31.821Z,58.29
2022-11-19T16:07:00.835Z,58.56
2022-11-19T16:09:27.552Z,58.51
2022-11-19T16:12:13.188Z,58.64
2022-11-19T16:14:58.456Z,58.86
2022-11-19T16:17:41.719Z,58.58
2022-11-19T16:20:24.499Z,58.66
2022-11-19T16:22:53.135Z,58.67
2022-11-19T16:25:34.798Z,58.96
2022-11-19T16:28:03.522Z,58.99
2022-11-19T16:30:30.317Z,58.89
2022-11-19T16:33:00.077Z,58.68
2022-11-19T16:35:30.321Z,58.88
2022-11-19T16:37:59.288Z,58.58
2022-11-19T16:40:25.833Z,58.69
2022-11-19T16:42:56.520Z,58.72
2022-11-19T16:45:27.134Z,58.54
2022-11-19T16:47:57.779Z,58.75
2022-11-19T16:50:45.313Z,58.53
2022-11-19T16:53:13.172Z,58.63
2022-11-19T16:55:43.075Z,58.85
2022-11-19T16:58:09.782Z,59.04
2022-11-19T17:00:42.907Z,58.53
2022-11-19T17:03:27.691Z,58.25
2022-11-19T17:05:59.797Z,58.56
2022-11-19T17:08:26.346Z,58.38
2022-11-19T17:11:32.032Z,58.47
2022-11-19T17:14:33.304Z,58.67
2022-11-19T17:16:59.864Z,58.76
2022-11-19T17:19:32.492Z,58.70
2022-11-19T17:22:17.663Z,58.59
2022-11-19T17:24:46.705Z,58.81
2022-11-19T17:27:34.555Z,58.81
2022-11-19T17:30:18.134Z,58.75
2022-11-19T17:32:56.905Z,58.59
2022-11-19T17:35:42.879Z,58.72
2022-11-19T17:38:15.921Z,58.82
2022-11-19T17:40:52.770Z,58.51
2022-11-19T17:44:04.425Z,58.72
2022-11-19T17:46:31.063Z,58.64
2022-11-19T17:48:57.737Z,58.35
2022-11-19T17:51:25.038Z,58.51
2022-11-19T17:53:51.964Z,58.63
2022-11-19T17:56:26.007Z,58.35
2022-11-19T17:58:52.738Z,58.68
2022-11-19T18:01:19.818Z,58.39
2022-11-19T18:03:49.054Z,58.32
2022-11-19T18:06:16.552Z,58.15
2022-11-19T18:08:43.380Z,58.13
2022-11-19T18:11:14.365Z,58.08
2022-11-19T18:13:40.943Z,58.72
2022-11-19T18:16:27.373Z,59.10
2022-11-19T18:18:54.041Z,58.72
2022-11-19T18:21:23.359Z,58.55
2022-11-19T18:23:50.815Z,58.85
2022-11-19T18:26:18.996Z,58.92
2022-11-19T18:28:49.467Z,59.00
2022-11-19T18:31:26.033Z,58.87
2022-11-19T18:33:55.486Z,59.09
2022-11-19T18:36:22.553Z,59.56
2022-11-19T18:38:49.236Z,59.11
2022-11-19T18:41:21.165Z,59.22
2022-11-19T18:44:08.827Z,59.44
2022-11-19T18:46:35.745Z,59.02
2022-11-19T18:49:02.646Z,59.03
2022-11-19T18:51:29.624Z,59.49
2022-11-19T18:53:56.239Z,58.82
2022-11-19T18:56:25.295Z,59.00
2022-11-19T18:58:54.264Z,58.38
2022-11-19T19:01:21.594Z,58.61
2022-11-19T19:03:48.226Z,58.89
2022-11-19T19:06:15.866Z,58.82
2022-11-19T19:08:46.564Z,58.59
2022-11-19T19:11:32.029Z,58.43
2022-11-19T19:14:01.021Z,58.35
2022-11-19T19:16:27.638Z,57.93
2022-11-19T19:18:59.027Z,58.12
2022-11-19T19:21:29.886Z,58.65
2022-11-19T19:24:01.255Z,58.66
2022-11-19T19:26:28.291Z,58.81
2022-11-19T19:28:56.342Z,58.49
2022-11-19T19:31:23.128Z,58.73
2022-11-19T19:33:49.974Z,58.03
2022-11-19T19:36:17.022Z,58.38
2022-11-19T19:38:45.838Z,58.29
2022-11-19T19:41:17.148Z,58.15
2022-11-19T19:43:47.640Z,57.94
2022-11-19T19:46:15.920Z,58.10
2022-11-19T19:48:45.626Z,58.46
2022-11-19T19:51:13.353Z,58.36
2022-11-19T19:53:41.784Z,58.20
2022-11-19T19:56:12.684Z,57.86
2022-11-19T19:58:43.647Z,57.83
2022-11-19T20:01:20.281Z,57.49
2022-11-19T20:03:53.064Z,57.72
2022-11-19T20:06:21.746Z,57.98
2022-11-19T20:08:48.296Z,58.08
2022-11-19T20:11:19.106Z,57.92
2022-11-19T20:13:45.760Z,57.73
2022-11-19T20:16:18.435Z,57.87
2022-11-19T20:18:46.088Z,58.17
2022-11-19T20:21:18.536Z,57.93
2022-11-19T20:23:45.113Z,58.25
2022-11-19T20:26:14.603Z,57.62
2022-11-19T20:28:46.643Z,57.92
2022-11-19T20:31:14.362Z,58.02
2022-11-19T20:33:44.000Z,57.94
2022-11-19T20:36:13.404Z,58.13
2022-11-19T20:38:48.598Z,57.82
2022-11-19T20:41:35.043Z,57.90
2022-11-19T20:44:20.698Z,58.30
2022-11-19T20:46:48.552Z,58.06
2022-11-19T20:49:18.129Z,58.12
2022-11-19T20:51:48.050Z,58.06
2022-11-19T20:54:14.603Z,58.33
2022-11-19T20:56:41.536Z,57.92
2022-11-19T20:59:08.404Z,57.74
2022-11-19T21:01:37.764Z,58.10
2022-11-19T21:04:04.657Z,57.64
2022-11-19T21:06:31.318Z,57.80
2022-11-19T21:08:57.997Z,57.54
2022-11-19T21:11:24.968Z,57.75
2022-11-19T21:13:51.831Z,57.55
2022-11-19T21:16:24.004Z,57.29
2022-11-19T21:18:50.781Z,57.57
2022-11-19T21:21:17.885Z,57.78
2022-11-19T21:23:44.574Z,57.58
2022-11-19T21:26:16.775Z,57.64
2022-11-19T21:28:46.271Z,57.57
2022-11-19T21:31:13.103Z,57.45
2022-11-19T21:33:40.552Z,57.16
2022-11-19T21:36:09.758Z,57.03
2022-11-19T21:38:41.672Z,56.96
2022-11-19T21:41:08.222Z,57.34
2022-11-19T21:43:39.785Z,56.81
2022-11-19T21:46:06.917Z,56.85
2022-11-19T21:48:36.753Z,56.83
2022-11-19T21:51:09.220Z,56.83
2022-11-19T21:53:38.356Z,56.97
2022-11-19T21:56:07.651Z,57.04
2022-11-19T21:58:34.226Z,56.57
2022-11-19T22:01:01.439Z,55.85
2022-11-19T22:03:28.914Z,56.27
2022-11-19T22:06:07.894Z,56.39
2022-11-19T22:08:35.484Z,56.15
2022-11-19T22:11:21.971Z,56.21
2022-11-19T22:13:48.610Z,56.67
2022-11-19T22:16:15.177Z,56.48
2022-11-19T22:18:41.728Z,55.78
2022-11-19T22:21:08.266Z,56.26
2022-11-19T22:23:39.396Z,56.99
2022-11-19T22:26:08.771Z,56.74
2022-11-19T22:28:35.492Z,56.80
2022-11-19T22:31:02.142Z,57.25
2022-11-19T22:33:29.422Z,57.47
2022-11-19T22:35:59.478Z,57.50
2022-11-19T22:38:28.763Z,57.75
2022-11-19T22:41:00.589Z,57.65
2022-11-19T22:43:30.340Z,57.56
2022-11-19T22:46:04.042Z,57.77
2022-11-19T22:48:33.486Z,57.84
2022-11-19T22:51:00.148Z,57.57
2022-11-19T22:53:26.794Z,57.82
2022-11-19T22:55:53.466Z,57.33
2022-11-19T22:58:22.628Z,57.20
2022-11-19T23:00:50.425Z,57.80
2022-11-19T23:03:17.316Z,58.02
2022-11-19T23:05:55.204Z,57.45
2022-11-19T23:08:21.896Z,56.93
2022-11-19T23:10:56.199Z,57.39
2022-11-19T23:13:34.430Z,57.20
2022-11-19T23:16:05.207Z,57.94
2022-11-19T23:18:32.895Z,57.64
2022-11-19T23:21:00.615Z,57.77
2022-11-19T23:23:29.735Z,58.27
2022-11-19T23:25:59.273Z,58.55
2022-11-19T23:28:26.376Z,58.63
2022-11-19T23:30:53.040Z,58.77
2022-11-19T23:33:19.777Z,58.88
2022-11-19T23:35:46.333Z,59.25
2022-11-19T23:38:12.960Z,59.22
2022-11-19T23:40:42.024Z,59.46
2022-11-19T23:43:08.576Z,59.58
2022-11-19T23:45:36.021Z,59.14
2022-11-19T23:48:04.894Z,59.17
2022-11-19T23:50:33.814Z,59.72
2022-11-19T23:53:00.509Z,59.54
2022-11-19T23:55:27.119Z,59.50
2022-11-19T23:57:56.171Z,59.71
